Time;durP1;ratioP1;P1;durP2;ratioP2;P2;SDS_P1;SDS_P2;PMS_P1;PMS_P2;Temp;Humidity;BMP_temperature;BMP_pressure;BME280_temperature;BME280_humidity;BME280_pressure;Samples;Min_cycle;Max_cycle;Signal;HPM_P1;HPM_P2
2023/05/26 04:23:30;;;;;;;23.57;16.50;;;;;;;15.45;100.00;100546.50;5569325;31;1136679;-88
2023/05/26 04:26:40;;;;;;;26.42;16.65;;;;;;;15.45;100.00;100546.50;5584579;31;34343;-87
2023/05/26 04:29:48;;;;;;;21.75;15.95;;;;;;;15.01;100.00;100545.87;5584111;31;34016;-88
2023/05/26 04:32:57;;;;;;;26.73;16.27;;;;;;;15.22;100.00;100550.75;5584758;31;34363;-87
2023/05/26 04:36:08;;;;;;;22.13;15.75;;;;;;;15.29;100.00;100552.03;5584656;31;33731;-87
2023/05/26 04:39:19;;;;;;;20.77;15.05;;;;;;;15.34;100.00;100554.41;5586606;31;34561;-87
2023/05/26 04:42:24;;;;;;;22.17;15.35;;;;;;;15.42;100.00;100552.06;5594310;32;34123;-88
2023/05/26 04:45:35;;;;;;;22.25;15.38;;;;;;;15.56;100.00;100558.31;5593765;32;34085;-88
2023/05/26 04:48:41;;;;;;;20.42;15.35;;;;;;;15.67;100.00;100565.59;5583696;31;33326;-87
2023/05/26 04:51:54;;;;;;;20.73;14.10;;;;;;;15.89;100.00;100559.59;5583138;32;34423;-88
2023/05/26 04:55:03;;;;;;;18.92;14.95;;;;;;;16.18;100.00;100559.44;5585214;32;34021;-87
2023/05/26 04:58:13;;;;;;;20.15;14.27;;;;;;;16.42;100.00;100555.97;5583638;31;33899;-88
2023/05/26 05:01:22;;;;;;;20.20;14.02;;;;;;;16.37;100.00;100559.00;5583996;31;33884;-87
2023/05/26 05:04:30;;;;;;;18.25;13.90;;;;;;;16.62;100.00;100561.72;5584494;32;33601;-87
2023/05/26 05:07:38;;;;;;;19.10;13.95;;;;;;;16.84;100.00;100561.00;5587050;31;34075;-90
2023/05/26 05:10:49;;;;;;;18.15;14.30;;;;;;;17.17;100.00;100555.97;5596210;31;33581;-88
2023/05/26 05:13:57;;;;;;;19.87;13.35;;;;;;;17.49;100.00;100568.75;5585389;31;33779;-87
2023/05/26 05:17:04;;;;;;;18.62;12.95;;;;;;;17.72;100.00;100560.78;5586235;31;34099;-87
2023/05/26 05:20:09;;;;;;;18.20;13.70;;;;;;;17.71;100.00;100567.97;5586144;32;34554;-89
2023/05/26 05:23:19;;;;;;;22.52;13.00;;;;;;;17.65;100.00;100571.12;5586621;32;33749;-87
2023/05/26 05:26:25;;;;;;;18.17;11.27;;;;;;;19.78;100.00;100574.75;5586957;31;34103;-88
2023/05/26 05:29:33;;;;;;;15.90;10.23;;;;;;;23.00;88.13;100575.09;5584497;32;33504;-87
2023/05/26 05:32:39;;;;;;;12.50;10.05;;;;;;;25.00;73.06;100577.22;5579353;31;33793;-87
2023/05/26 05:35:46;;;;;;;15.15;10.48;;;;;;;26.04;68.85;100573.16;5570160;32;33789;-87
2023/05/26 05:38:55;;;;;;;12.00;9.68;;;;;;;27.16;60.24;100584.91;5579167;32;34102;-87
2023/05/26 05:42:02;;;;;;;13.32;9.25;;;;;;;26.53;60.88;100584.91;5556446;32;34047;-88
2023/05/26 05:45:07;;;;;;;11.98;8.73;;;;;;;26.21;62.68;100586.69;5567751;32;34293;-87
2023/05/26 05:48:15;;;;;;;9.55;8.35;;;;;;;27.98;54.95;100582.56;5571836;32;34623;-87
2023/05/26 05:51:21;;;;;;;12.07;9.25;;;;;;;27.71;54.43;100590.28;5559576;32;33816;-87
2023/05/26 05:54:29;;;;;;;11.27;9.68;;;;;;;25.43;61.09;100592.53;5554847;32;33814;-87
2023/05/26 05:57:35;;;;;;;13.70;9.50;;;;;;;24.09;65.59;100585.81;5566067;32;33843;-87
2023/05/26 06:00:42;;;;;;;10.50;9.40;;;;;;;23.89;67.19;100587.84;5571055;32;33509;-87
2023/05/26 06:03:47;;;;;;;11.40;8.95;;;;;;;25.75;60.58;100598.16;5572910;32;33889;-87
2023/05/26 06:06:55;;;;;;;10.57;9.00;;;;;;;25.66;59.99;100591.88;5563131;32;34549;-86
2023/05/26 06:10:06;;;;;;;10.27;8.60;;;;;;;26.73;56.18;100596.22;5566184;32;33613;-83
2023/05/26 06:13:11;;;;;;;10.63;8.95;;;;;;;26.21;55.43;100597.56;5566548;32;34601;-83
2023/05/26 06:16:19;;;;;;;9.75;8.75;;;;;;;24.90;60.57;100603.66;5567093;32;34802;-85
2023/05/26 06:19:24;;;;;;;9.43;8.05;;;;;;;25.48;59.02;100603.75;5558734;32;34583;-87
2023/05/26 06:22:29;;;;;;;12.15;8.65;;;;;;;25.90;57.27;100598.31;5548675;32;33735;-90
2023/05/26 06:25:35;;;;;;;12.15;8.40;;;;;;;26.20;55.27;100596.72;5561216;32;33135;-83
2023/05/26 06:28:43;;;;;;;9.25;8.05;;;;;;;26.69;54.00;100599.47;5561199;32;33492;-85
2023/05/26 06:31:49;;;;;;;9.10;7.93;;;;;;;27.20;51.82;100606.34;5556904;32;33635;-83
2023/05/26 06:34:53;;;;;;;9.95;7.70;;;;;;;26.97;52.45;100607.16;5569980;32;34198;-82
2023/05/26 06:37:58;;;;;;;9.75;8.20;;;;;;;26.31;54.04;100606.44;5567182;32;34084;-85
2023/05/26 06:41:03;;;;;;;11.20;8.25;;;;;;;25.63;57.33;100600.38;5563831;32;34199;-83
2023/05/26 06:44:07;;;;;;;10.82;8.35;;;;;;;24.88;60.23;100601.09;5553510;32;34372;-84
2023/05/26 06:47:12;;;;;;;8.30;7.50;;;;;;;24.04;63.31;100601.66;5562767;32;34868;-86
2023/05/26 06:50:18;;;;;;;11.27;8.57;;;;;;;23.34;68.90;100605.19;5562357;32;33702;-86
2023/05/26 06:53:24;;;;;;;8.70;7.68;;;;;;;23.42;67.94;100611.53;5554834;32;34020;-88
2023/05/26 06:56:28;;;;;;;11.73;7.93;;;;;;;23.83;67.53;100608.31;5570159;32;33946;-88
2023/05/26 06:59:38;;;;;;;9.77;8.20;;;;;;;23.85;68.06;100615.41;5561552;32;33959;-87
2023/05/26 07:02:44;;;;;;;17.50;8.15;;;;;;;23.99;67.18;100614.88;5564379;32;33830;-84
2023/05/26 07:05:51;;;;;;;13.13;8.90;;;;;;;24.04;66.20;100612.50;5566426;32;33805;-87
2023/05/26 07:08:59;;;;;;;8.88;7.95;;;;;;;23.90;67.03;100615.81;5577653;31;34363;-86
2023/05/26 07:12:07;;;;;;;12.70;9.13;;;;;;;24.25;67.20;100610.47;5563068;31;33509;-85
2023/05/26 07:15:10;;;;;;;10.48;8.20;;;;;;;23.93;68.01;100618.22;5565259;32;34003;-87
2023/05/26 07:18:14;;;;;;;11.50;8.13;;;;;;;24.09;67.55;100621.03;5565245;31;34345;-84
2023/05/26 07:21:21;;;;;;;10.77;8.73;;;;;;;24.93;65.36;100616.06;5561554;31;33663;-88
2023/05/26 07:24:28;;;;;;;10.68;8.70;;;;;;;25.01;61.42;100611.50;5563911;32;34696;-86
2023/05/26 07:27:34;;;;;;;9.90;8.02;;;;;;;24.96;60.96;100611.13;5564677;32;33310;-86
2023/05/26 07:30:40;;;;;;;12.50;8.35;;;;;;;25.60;58.61;100617.03;5563243;31;34183;-85
2023/05/26 07:33:47;;;;;;;16.60;8.77;;;;;;;25.35;59.82;100614.25;5573517;32;33805;-87
2023/05/26 07:36:57;;;;;;;12.83;8.60;;;;;;;25.52;59.29;100615.97;5559497;31;34563;-86
2023/05/26 07:40:04;;;;;;;11.45;8.30;;;;;;;25.48;57.24;100611.88;5569775;32;34111;-91
2023/05/26 07:43:12;;;;;;;12.57;8.05;;;;;;;26.26;55.29;100624.25;5570595;32;35264;-90
2023/05/26 07:46:15;;;;;;;12.23;8.52;;;;;;;25.89;56.21;100619.19;5571348;31;34562;-87
2023/05/26 07:49:20;;;;;;;12.45;8.15;;;;;;;26.34;54.09;100625.09;5556646;32;32856;-86
2023/05/26 07:52:28;;;;;;;11.80;8.25;;;;;;;26.17;52.63;100620.69;5553868;32;33762;-86
2023/05/26 07:55:37;;;;;;;10.93;8.57;;;;;;;26.32;52.89;100618.12;5562962;32;33906;-85
2023/05/26 07:58:41;;;;;;;13.20;8.40;;;;;;;25.93;54.22;100616.97;5553522;32;33947;-86
2023/05/26 08:01:48;;;;;;;14.52;8.57;;;;;;;25.75;55.89;100618.00;5549460;32;34777;-87
2023/05/26 08:04:54;;;;;;;14.52;8.50;;;;;;;25.58;53.61;100619.91;5560539;31;33324;-88
2023/05/26 08:07:58;;;;;;;10.32;8.20;;;;;;;26.24;50.14;100619.00;5553320;32;32450;-86
2023/05/26 08:11:06;;;;;;;12.88;8.40;;;;;;;27.00;47.51;100621.25;5563296;32;34176;-86
2023/05/26 08:14:09;;;;;;;14.52;8.82;;;;;;;26.11;50.02;100620.34;5568076;31;33713;-87
2023/05/26 08:17:14;;;;;;;9.95;8.07;;;;;;;26.97;49.10;100624.34;5561705;31;34535;-86
2023/05/26 08:20:19;;;;;;;10.15;7.85;;;;;;;27.51;47.75;100627.22;5567503;32;33708;-86
2023/05/26 08:23:26;;;;;;;10.20;8.40;;;;;;;28.32;46.52;100628.56;5566099;32;33994;-86
2023/05/26 08:26:33;;;;;;;12.23;8.38;;;;;;;29.14;42.28;100623.09;5553935;32;33570;-87
2023/05/26 08:29:37;;;;;;;10.77;8.27;;;;;;;28.70;43.05;100635.78;5549189;32;33898;-87
2023/05/26 08:32:40;;;;;;;9.27;8.23;;;;;;;27.04;45.63;100624.47;5557080;32;34371;-86
2023/05/26 08:35:43;;;;;;;10.85;8.50;;;;;;;27.67;46.05;100624.41;5558914;31;34452;-86
2023/05/26 08:38:46;;;;;;;13.23;8.45;;;;;;;28.89;42.43;100629.75;5561003;31;33963;-85
2023/05/26 08:41:55;;;;;;;12.18;8.35;;;;;;;29.30;41.27;100628.31;5568681;31;34721;-87
2023/05/26 08:44:59;;;;;;;10.27;9.00;;;;;;;28.36;43.49;100624.44;5572804;31;35032;-87
2023/05/26 08:48:07;;;;;;;13.10;8.50;;;;;;;28.92;41.89;100628.53;5550618;32;33929;-86
2023/05/26 08:51:12;;;;;;;11.23;8.38;;;;;;;29.17;42.79;100620.00;5559830;31;35803;-86
2023/05/26 08:54:15;;;;;;;9.18;7.97;;;;;;;30.08;39.67;100632.19;5578167;31;33987;-87
2023/05/26 08:57:20;;;;;;;12.32;8.80;;;;;;;29.84;39.30;100634.31;5547290;32;34264;-86
2023/05/26 09:00:25;;;;;;;9.63;7.95;;;;;;;30.26;39.69;100628.06;5566732;32;33840;-86
2023/05/26 09:03:29;;;;;;;9.40;8.40;;;;;;;30.97;38.11;100622.53;5577632;31;34008;-87
2023/05/26 09:06:35;;;;;;;11.35;8.15;;;;;;;31.96;36.42;100631.13;5569919;31;33711;-88
2023/05/26 09:09:41;;;;;;;10.27;8.00;;;;;;;31.34;37.21;100617.59;5576686;31;33421;-88
2023/05/26 09:12:47;;;;;;;10.43;7.57;;;;;;;31.63;36.85;100620.13;5568470;31;34038;-91
2023/05/26 09:15:53;;;;;;;14.48;7.70;;;;;;;30.91;37.06;100615.97;5560855;31;33823;-91
2023/05/26 09:19:15;;;;;;;10.75;8.50;;;;;;;30.92;36.58;100609.47;5561869;32;33921;-86
2023/05/26 09:22:22;;;;;;;10.48;7.97;;;;;;;30.82;36.73;100620.78;5569024;32;33978;-85
2023/05/26 09:25:33;;;;;;;12.37;7.82;;;;;;;30.67;36.99;100613.56;5569020;32;34022;-86
2023/05/26 09:28:48;;;;;;;8.68;7.50;;;;;;;29.56;39.38;100612.41;5561744;31;33417;-88
2023/05/26 09:31:53;;;;;;;11.77;7.80;;;;;;;30.03;38.47;100609.19;5558496;32;33914;-88
2023/05/26 09:35:03;;;;;;;12.32;8.13;;;;;;;29.55;39.41;100607.97;5554802;32;32453;-88
2023/05/26 09:38:11;;;;;;;12.43;8.85;;;;;;;30.08;38.06;100613.06;5570131;32;33741;-87
2023/05/26 09:41:20;;;;;;;11.45;8.05;;;;;;;29.04;40.02;100612.50;5569854;32;34432;-87
2023/05/26 09:44:23;;;;;;;14.75;9.25;;;;;;;29.48;40.49;100613.37;5562873;32;34332;-88
2023/05/26 09:47:36;;;;;;;14.48;8.80;;;;;;;28.58;42.04;100609.00;5551991;32;34894;-88
2023/05/26 09:50:45;;;;;;;11.02;8.63;;;;;;;29.40;41.51;100603.41;5551947;32;34251;-87
2023/05/26 09:53:53;;;;;;;;;;;;;;;27.71;42.37;100614.81;5552957;32;34232;-87
2023/05/26 09:57:03;;;;;;;12.15;8.52;;;;;;;26.82;45.93;100602.47;5560878;32;34629;-87
2023/05/26 10:00:10;;;;;;;9.77;8.18;;;;;;;26.63;43.89;100596.44;5560140;32;34557;-88
2023/05/26 10:03:16;;;;;;;10.85;8.30;;;;;;;26.36;42.17;100597.72;5564675;32;34190;-87
2023/05/26 10:06:21;;;;;;;11.82;8.00;;;;;;;27.03;42.79;100599.13;5563210;32;34320;-87
2023/05/26 10:09:25;;;;;;;12.57;8.65;;;;;;;28.28;39.44;100603.56;5556938;32;33906;-87
2023/05/26 10:12:30;;;;;;;9.77;8.32;;;;;;;27.25;42.86;100595.78;5563207;32;34153;-90
2023/05/26 10:15:38;;;;;;;11.00;7.70;;;;;;;28.08;42.79;100595.03;5560371;32;34911;-91
2023/05/26 10:18:44;;;;;;;10.65;8.15;;;;;;;28.60;40.49;100587.81;5567728;32;33576;-89
2023/05/26 10:21:57;;;;;;;10.40;8.30;;;;;;;28.84;40.00;100595.84;5567838;31;34374;-89
2023/05/26 10:25:06;;;;;;;8.75;7.85;;;;;;;28.98;39.68;100594.16;5567317;31;33612;-89
2023/05/26 10:28:25;;;;;;;8.63;7.82;;;;;;;29.01;37.82;100596.50;5564210;32;33730;-90
2023/05/26 10:35:23;;;;;;;11.40;7.93;;;;;;;28.22;39.88;100591.50;1880508;26;20108;-90
2023/05/26 10:49:40;;;;;;;11.85;7.37;;;;;;;30.33;33.73;100587.94;5551088;26;32320;-88
2023/05/26 10:52:49;;;;;;;9.57;7.50;;;;;;;30.34;34.83;100581.41;5600991;26;34271;-89
2023/05/26 10:56:03;;;;;;;7.97;6.95;;;;;;;30.07;36.22;100583.97;5504860;32;33514;-89
2023/05/26 10:59:07;;;;;;;8.07;6.90;;;;;;;30.67;34.59;100580.72;5510427;32;33516;-89
2023/05/26 11:02:21;;;;;;;8.25;6.72;;;;;;;31.05;34.76;100581.25;5552013;26;34420;-90
2023/05/26 11:05:32;;;;;;;12.73;7.45;;;;;;;31.95;32.72;100574.59;5574966;26;33562;-89
2023/05/26 11:46:37;;;;;;;11.02;7.60;;;;;;;28.94;36.61;100543.69;2377750;30;20087;-88
2023/05/26 12:04:41;;;;;;;7.00;6.40;;;;;;;28.64;33.32;100525.50;733538;30;20401;-87
2023/05/26 12:08:00;;;;;;;7.32;6.50;;;;;;;29.08;34.73;100510.03;5564022;26;32676;-89
2023/05/26 12:34:13;;;;;;;6.95;6.25;;;;;;;27.98;35.27;100481.69;5523783;32;20100;-87
2023/05/26 12:37:17;;;;;;;8.38;6.78;;;;;;;28.53;34.89;100469.56;5521742;32;34990;-87
2023/05/26 12:40:21;;;;;;;7.78;6.97;;;;;;;28.76;36.17;100472.09;5520996;32;33609;-88
2023/05/26 12:43:26;;;;;;;7.65;6.87;;;;;;;28.96;36.88;100476.94;5514529;32;34437;-87
2023/05/26 12:46:34;;;;;;;9.35;6.62;;;;;;;27.78;37.96;100469.66;5520749;32;33660;-88
2023/05/26 12:49:42;;;;;;;9.88;7.72;;;;;;;27.89;38.71;100462.88;5527997;32;34286;-89
2023/05/26 12:52:49;;;;;;;10.32;7.95;;;;;;;27.51;39.62;100469.22;5529803;32;33464;-88
2023/05/26 12:55:56;;;;;;;8.13;7.32;;;;;;;27.89;41.26;100462.88;5522306;32;32546;-88
2023/05/26 12:59:02;;;;;;;9.38;7.70;;;;;;;28.06;40.61;100455.34;5522079;32;33842;-89
2023/05/26 13:02:22;;;;;;;8.65;7.75;;;;;;;27.67;41.66;100455.47;5517217;32;34516;-89
2023/05/26 13:05:30;;;;;;;13.05;7.70;;;;;;;27.56;43.48;100447.72;5527708;32;34605;-89
2023/05/26 13:08:38;;;;;;;15.43;7.37;;;;;;;27.87;42.59;100446.72;5512444;32;34163;-88
2023/05/26 13:11:46;;;;;;;10.13;7.87;;;;;;;27.39;43.63;100447.91;5513556;32;33834;-88
2023/05/26 13:14:54;;;;;;;9.00;8.02;;;;;;;27.15;43.67;100438.94;5517464;32;33944;-91
2023/05/26 13:18:00;;;;;;;8.98;7.70;;;;;;;26.73;44.29;100434.84;5528158;32;34197;-89
2023/05/26 13:24:36;;;;;;;10.80;7.97;;;;;;;26.90;46.72;100428.22;5516931;32;34825;-89
2023/05/26 13:27:43;;;;;;;10.20;7.70;;;;;;;26.68;47.13;100423.63;5512636;32;34059;-89
2023/05/26 13:30:48;;;;;;;13.13;9.05;;;;;;;27.12;47.45;100427.56;5497505;32;34492;-89
2023/05/26 13:33:53;;;;;;;13.40;9.05;;;;;;;27.08;48.07;100427.09;5507399;32;34077;-89
2023/05/26 13:37:00;;;;;;;11.15;8.55;;;;;;;26.97;47.64;100432.97;5499238;32;34063;-89
